Time;durP1;ratioP1;P1;durP2;ratioP2;P2;SDS_P1;SDS_P2;PMS_P1;PMS_P2;Temp;Humidity;BMP_temperature;BMP_pressure;BME280_temperature;BME280_humidity;BME280_pressure;Samples;Min_cycle;Max_cycle;Signal;HPM_P1;HPM_P2
2022/10/17 00:01:20;;;;;;;13.50;7.80;;;;;;;;;;4981465;28;20037;-63
2022/10/17 00:03:45;;;;;;;12.05;7.78;;;;;;;;;;4963575;28;20107;-64
2022/10/17 00:06:13;;;;;;;13.65;8.30;;;;;;;;;;4980194;28;20049;-63
2022/10/17 00:08:40;;;;;;;12.00;8.15;;;;;;;;;;4979957;28;20036;-64
2022/10/17 00:11:16;;;;;;;15.80;8.77;;;;;;;;;;4991950;28;20042;-65
2022/10/17 00:13:41;;;;;;;13.40;8.32;;;;;;;;;;4961186;28;20030;-64
2022/10/17 00:16:07;;;;;;;15.32;9.20;;;;;;;;;;4974637;28;20038;-64
2022/10/17 00:18:33;;;;;;;16.02;9.48;;;;;;;;;;4975476;28;20073;-64
2022/10/17 00:20:58;;;;;;;16.77;8.82;;;;;;;;;;4975954;28;20070;-64
2022/10/17 00:23:26;;;;;;;14.25;8.82;;;;;;;;;;4975666;28;20041;-63
2022/10/17 00:26:04;;;;;;;14.60;8.63;;;;;;;;;;4958259;28;20086;-63
2022/10/17 00:28:31;;;;;;;13.18;8.57;;;;;;;;;;4970236;28;20035;-64
2022/10/17 00:31:01;;;;;;;17.77;8.82;;;;;;;;;;4968393;28;20484;-64
2022/10/17 00:33:28;;;;;;;13.50;8.45;;;;;;;;;;4959597;28;20538;-64
2022/10/17 00:36:05;;;;;;;11.80;8.02;;;;;;;;;;4959778;28;20087;-63
2022/10/17 00:38:30;;;;;;;13.50;8.93;;;;;;;;;;4954472;28;20130;-64
2022/10/17 00:40:55;;;;;;;14.85;9.05;;;;;;;;;;4956057;28;20126;-64
2022/10/17 00:43:21;;;;;;;12.35;9.00;;;;;;;;;;4958735;28;20036;-63
2022/10/17 00:45:46;;;;;;;14.98;8.98;;;;;;;;;;4957296;28;20509;-64
2022/10/17 00:48:13;;;;;;;13.80;8.95;;;;;;;;;;4973174;28;20033;-63
2022/10/17 00:50:42;;;;;;;13.80;8.65;;;;;;;;;;4969089;28;20031;-64
2022/10/17 00:53:08;;;;;;;15.00;9.50;;;;;;;;;;4978834;28;20082;-63
2022/10/17 00:55:38;;;;;;;13.55;8.80;;;;;;;;;;4952213;28;20487;-62
2022/10/17 00:58:05;;;;;;;12.60;9.07;;;;;;;;;;4958766;28;20448;-63
2022/10/17 01:00:31;;;;;;;15.25;10.23;;;;;;;;;;4973093;28;20447;-64
2022/10/17 01:02:56;;;;;;;20.65;11.63;;;;;;;;;;4961079;28;20058;-64
2022/10/17 01:05:22;;;;;;;16.27;10.35;;;;;;;;;;4978061;28;20038;-62
2022/10/17 01:07:51;;;;;;;18.05;11.10;;;;;;;;;;4965698;28;20464;-63
2022/10/17 01:10:18;;;;;;;16.10;10.23;;;;;;;;;;4987600;28;20031;-62
2022/10/17 01:13:11;;;;;;;18.33;10.00;;;;;;;;;;4959703;28;20440;-63
2022/10/17 01:16:04;;;;;;;15.48;10.45;;;;;;;;;;4991982;28;20038;-64
2022/10/17 01:18:58;;;;;;;17.30;10.23;;;;;;;;;;4991289;28;20471;-63
2022/10/17 01:22:00;;;;;;;14.63;9.68;;;;;;;;;;4989761;28;20043;-63
2022/10/17 01:24:54;;;;;;;18.40;9.60;;;;;;;;;;4985004;28;20355;-63
2022/10/17 01:27:42;;;;;;;14.82;9.55;;;;;;;;;;4966245;28;20118;-63
2022/10/17 01:30:33;;;;;;;13.43;8.95;;;;;;;;;;4987160;28;20124;-64
2022/10/17 01:33:11;;;;;;;16.90;8.90;;;;;;;;;;4983699;28;20427;-63
2022/10/17 01:35:47;;;;;;;13.15;8.85;;;;;;;;;;4952968;28;20074;-63
2022/10/17 01:38:19;;;;;;;15.38;8.45;;;;;;;;;;4957625;28;20496;-63
2022/10/17 01:41:13;;;;;;;13.98;9.20;;;;;;;;;;4953086;28;20625;-63
2022/10/17 01:43:40;;;;;;;15.18;9.15;;;;;;;;;;4951531;28;20121;-65
2022/10/17 01:46:16;;;;;;;12.85;8.13;;;;;;;;;;4964925;28;20118;-64
2022/10/17 01:48:45;;;;;;;12.65;8.68;;;;;;;;;;4977008;28;20030;-65
2022/10/17 01:51:30;;;;;;;16.48;8.75;;;;;;;;;;4988332;28;20460;-63
2022/10/17 01:54:04;;;;;;;15.98;8.30;;;;;;;;;;4967293;28;20050;-65
2022/10/17 01:56:32;;;;;;;14.80;8.02;;;;;;;;;;4960264;28;20469;-64
2022/10/17 01:59:04;;;;;;;12.70;8.15;;;;;;;;;;4979285;28;20514;-64
2022/10/17 02:01:30;;;;;;;12.43;8.38;;;;;;;;;;4959832;28;20071;-63
2022/10/17 02:03:58;;;;;;;13.85;9.07;;;;;;;;;;4969054;28;20038;-63
2022/10/17 02:06:23;;;;;;;13.80;8.55;;;;;;;;;;4962560;28;20477;-64
2022/10/17 02:08:50;;;;;;;13.23;8.43;;;;;;;;;;4992016;28;20046;-63
2022/10/17 02:11:19;;;;;;;12.18;8.50;;;;;;;;;;4982365;28;20086;-63
2022/10/17 02:14:25;;;;;;;13.00;8.60;;;;;;;;;;4971058;28;20034;-64
2022/10/17 02:17:03;;;;;;;12.90;7.95;;;;;;;;;;4949248;28;20532;-64
2022/10/17 02:19:53;;;;;;;13.43;8.15;;;;;;;;;;4965595;28;20121;-63
2022/10/17 02:22:42;;;;;;;12.20;8.32;;;;;;;;;;4951569;28;20058;-63
2022/10/17 02:25:28;;;;;;;11.75;7.72;;;;;;;;;;4935427;28;20110;-63
2022/10/17 02:28:20;;;;;;;13.45;8.30;;;;;;;;;;4954267;28;20170;-63
2022/10/17 02:30:56;;;;;;;14.98;9.18;;;;;;;;;;4936059;29;20037;-64
2022/10/17 02:33:33;;;;;;;12.93;8.88;;;;;;;;;;4958025;28;20066;-63
2022/10/17 02:36:05;;;;;;;14.35;8.32;;;;;;;;;;4931663;28;20046;-65
2022/10/17 02:38:31;;;;;;;14.10;8.82;;;;;;;;;;4953768;28;20094;-64
2022/10/17 02:40:58;;;;;;;13.05;8.70;;;;;;;;;;4940921;28;20421;-64
2022/10/17 02:43:24;;;;;;;16.75;9.40;;;;;;;;;;4958430;28;20121;-63
2022/10/17 02:45:51;;;;;;;14.88;8.95;;;;;;;;;;4952278;28;20167;-63
2022/10/17 02:48:35;;;;;;;12.27;8.63;;;;;;;;;;4976176;28;20051;-64
2022/10/17 02:51:26;;;;;;;13.23;8.63;;;;;;;;;;4968022;28;20034;-63
2022/10/17 02:54:05;;;;;;;13.25;8.02;;;;;;;;;;4972426;28;20101;-64
2022/10/17 02:56:45;;;;;;;12.55;8.25;;;;;;;;;;4972658;28;20061;-63
2022/10/17 02:59:14;;;;;;;13.43;8.38;;;;;;;;;;4969399;28;20039;-63
2022/10/17 03:01:40;;;;;;;15.40;8.80;;;;;;;;;;4968090;28;20043;-63
2022/10/17 03:04:12;;;;;;;11.85;8.30;;;;;;;;;;4977969;28;20042;-63
2022/10/17 03:06:39;;;;;;;11.65;8.23;;;;;;;;;;4962682;28;20037;-63
2022/10/17 03:09:06;;;;;;;17.65;8.15;;;;;;;;;;4976509;28;20464;-63
2022/10/17 03:11:31;;;;;;;13.80;8.15;;;;;;;;;;4958776;28;20034;-63
2022/10/17 03:13:56;;;;;;;13.95;8.77;;;;;;;;;;4958105;28;20050;-63
2022/10/17 03:16:22;;;;;;;12.38;8.30;;;;;;;;;;4975644;28;20035;-63
2022/10/17 03:18:47;;;;;;;11.70;7.75;;;;;;;;;;4985763;28;20685;-63
2022/10/17 03:21:13;;;;;;;15.40;8.90;;;;;;;;;;4989240;28;20043;-63
2022/10/17 03:23:38;;;;;;;14.48;9.07;;;;;;;;;;4980107;28;20069;-63
2022/10/17 03:26:04;;;;;;;16.98;7.97;;;;;;;;;;4982302;28;20383;-64
2022/10/17 03:28:30;;;;;;;12.52;8.38;;;;;;;;;;4967030;28;20110;-63
2022/10/17 03:30:55;;;;;;;12.32;8.10;;;;;;;;;;4973908;28;20084;-64
2022/10/17 03:33:21;;;;;;;13.13;8.57;;;;;;;;;;4976834;28;20070;-64
2022/10/17 03:35:46;;;;;;;17.38;8.50;;;;;;;;;;4977996;28;20035;-64
2022/10/17 03:38:11;;;;;;;17.08;8.27;;;;;;;;;;4970233;28;20341;-63
2022/10/17 03:40:37;;;;;;;12.45;8.80;;;;;;;;;;4984770;28;20053;-62
2022/10/17 03:43:02;;;;;;;13.05;8.90;;;;;;;;;;4971046;28;20031;-64
2022/10/17 03:45:27;;;;;;;16.27;8.55;;;;;;;;;;4979425;28;20100;-63
2022/10/17 03:47:53;;;;;;;15.02;8.82;;;;;;;;;;4956479;28;20166;-63
2022/10/17 03:50:18;;;;;;;15.52;8.50;;;;;;;;;;4962898;28;20026;-64
2022/10/17 03:52:47;;;;;;;15.82;9.07;;;;;;;;;;4993794;28;20474;-63
2022/10/17 03:55:13;;;;;;;16.35;9.65;;;;;;;;;;4970649;28;20041;-63
2022/10/17 03:57:39;;;;;;;17.30;9.73;;;;;;;;;;4954979;28;20391;-62
2022/10/17 04:00:05;;;;;;;15.77;9.00;;;;;;;;;;4954272;28;20074;-64
2022/10/17 04:02:30;;;;;;;16.60;9.73;;;;;;;;;;4984204;28;20027;-64
2022/10/17 04:04:56;;;;;;;17.95;10.77;;;;;;;;;;4969657;28;20443;-64
2022/10/17 04:07:21;;;;;;;19.58;10.43;;;;;;;;;;4971874;28;20114;-64
2022/10/17 04:09:46;;;;;;;20.33;11.07;;;;;;;;;;4961429;28;20034;-63
2022/10/17 04:12:12;;;;;;;18.52;10.13;;;;;;;;;;4971949;28;20468;-63
2022/10/17 04:14:37;;;;;;;21.80;10.20;;;;;;;;;;4979184;28;20035;-63
2022/10/17 04:17:03;;;;;;;19.25;10.98;;;;;;;;;;4966475;28;20035;-63
2022/10/17 04:19:28;;;;;;;19.67;9.65;;;;;;;;;;4976957;28;20035;-63
2022/10/17 04:21:54;;;;;;;16.38;9.55;;;;;;;;;;4972490;28;20047;-63
2022/10/17 04:24:19;;;;;;;14.15;8.55;;;;;;;;;;4972092;28;20388;-63
2022/10/17 04:26:47;;;;;;;13.10;8.68;;;;;;;;;;4979353;28;20077;-63
2022/10/17 04:29:14;;;;;;;12.52;8.20;;;;;;;;;;4965646;28;20518;-63
2022/10/17 04:31:39;;;;;;;12.60;8.60;;;;;;;;;;4963494;28;20122;-64
2022/10/17 04:34:04;;;;;;;14.05;7.93;;;;;;;;;;4970157;28;20110;-63
2022/10/17 04:36:30;;;;;;;12.88;8.00;;;;;;;;;;4969853;28;20035;-64
2022/10/17 04:38:55;;;;;;;15.88;8.15;;;;;;;;;;4959884;28;20054;-64
2022/10/17 04:41:21;;;;;;;20.88;10.02;;;;;;;;;;4982603;28;20030;-64
2022/10/17 04:43:46;;;;;;;19.23;9.75;;;;;;;;;;4991617;28;20468;-63
2022/10/17 04:46:13;;;;;;;16.05;9.25;;;;;;;;;;4993435;28;20062;-63
2022/10/17 04:48:40;;;;;;;18.27;9.07;;;;;;;;;;4986795;28;20035;-63
2022/10/17 04:51:17;;;;;;;16.95;9.25;;;;;;;;;;4982240;28;20041;-63
2022/10/17 04:53:43;;;;;;;17.30;10.18;;;;;;;;;;4986788;28;20112;-63
2022/10/17 04:56:20;;;;;;;14.75;9.55;;;;;;;;;;4993309;28;20034;-63
2022/10/17 04:58:46;;;;;;;19.20;10.05;;;;;;;;;;4990251;28;20041;-63
2022/10/17 05:01:14;;;;;;;17.80;9.68;;;;;;;;;;4993077;28;20490;-64
2022/10/17 05:03:40;;;;;;;16.75;9.00;;;;;;;;;;4991004;28;20126;-64
2022/10/17 05:06:17;;;;;;;16.88;9.15;;;;;;;;;;4990117;28;20117;-64
2022/10/17 05:08:43;;;;;;;16.40;9.20;;;;;;;;;;4968942;28;20115;-64
2022/10/17 05:11:28;;;;;;;16.33;9.73;;;;;;;;;;4974626;28;20039;-63
2022/10/17 05:13:56;;;;;;;21.58;9.50;;;;;;;;;;4973078;28;20037;-73
2022/10/17 05:16:22;;;;;;;18.25;10.15;;;;;;;;;;4968025;28;20460;-65
2022/10/17 05:18:53;;;;;;;18.80;10.10;;;;;;;;;;4967830;28;20490;-62
2022/10/17 05:21:20;;;;;;;17.42;9.93;;;;;;;;;;4954954;28;20055;-62
2022/10/17 05:23:45;;;;;;;19.25;10.15;;;;;;;;;;4975789;28;20038;-61
2022/10/17 05:26:11;;;;;;;21.00;10.23;;;;;;;;;;4991734;28;20116;-64
2022/10/17 05:28:37;;;;;;;15.88;10.18;;;;;;;;;;4990545;28;20478;-65
2022/10/17 05:31:04;;;;;;;19.60;10.18;;;;;;;;;;4983466;28;20026;-63
2022/10/17 05:33:29;;;;;;;18.70;10.60;;;;;;;;;;4989945;28;20061;-66
2022/10/17 05:35:55;;;;;;;16.52;10.13;;;;;;;;;;4982569;28;20651;-63
2022/10/17 05:38:20;;;;;;;18.98;10.30;;;;;;;;;;4972862;28;20093;-63
2022/10/17 05:40:45;;;;;;;18.67;9.80;;;;;;;;;;4962635;28;20078;-63
2022/10/17 05:43:11;;;;;;;25.73;10.18;;;;;;;;;;4972901;28;20030;-62
2022/10/17 05:45:37;;;;;;;27.38;9.73;;;;;;;;;;4972246;28;20365;-64
2022/10/17 05:48:02;;;;;;;16.88;9.38;;;;;;;;;;4975689;28;20038;-63
2022/10/17 05:50:28;;;;;;;16.95;9.05;;;;;;;;;;4973109;28;20357;-63
2022/10/17 05:52:54;;;;;;;16.85;8.82;;;;;;;;;;4988646;28;20216;-61
2022/10/17 05:55:19;;;;;;;12.75;8.43;;;;;;;;;;4991447;28;20030;-63
2022/10/17 05:57:45;;;;;;;14.85;8.18;;;;;;;;;;4979436;28;20031;-64
2022/10/17 06:00:11;;;;;;;13.73;9.15;;;;;;;;;;4972800;28;20035;-62
2022/10/17 06:02:36;;;;;;;13.82;9.38;;;;;;;;;;4968439;28;20037;-65
2022/10/17 06:05:02;;;;;;;12.50;8.35;;;;;;;;;;4989502;28;20176;-63
2022/10/17 06:07:27;;;;;;;14.25;8.52;;;;;;;;;;4988052;28;20038;-61
2022/10/17 06:09:52;;;;;;;14.75;8.18;;;;;;;;;;4986028;28;20100;-62
2022/10/17 06:12:18;;;;;;;12.40;7.72;;;;;;;;;;4980765;28;20038;-63
2022/10/17 06:14:43;;;;;;;14.48;8.00;;;;;;;;;;4985035;28;20033;-63
2022/10/17 06:17:08;;;;;;;14.00;8.38;;;;;;;;;;4985142;28;20438;-63
2022/10/17 06:19:34;;;;;;;16.25;9.05;;;;;;;;;;4991917;28;20037;-64
2022/10/17 06:21:59;;;;;;;13.63;8.25;;;;;;;;;;4983422;28;20046;-65
2022/10/17 06:24:25;;;;;;;15.98;8.63;;;;;;;;;;4991714;28;20031;-64
2022/10/17 06:26:50;;;;;;;15.73;8.32;;;;;;;;;;4974343;28;20406;-62
2022/10/17 06:29:16;;;;;;;15.75;8.65;;;;;;;;;;4971047;28;20035;-63
2022/10/17 06:31:41;;;;;;;18.63;8.82;;;;;;;;;;4994661;28;20045;-62
2022/10/17 06:34:06;;;;;;;14.95;8.30;;;;;;;;;;4994632;28;20034;-61
2022/10/17 06:36:32;;;;;;;13.43;8.43;;;;;;;;;;4987300;28;20109;-62
2022/10/17 06:38:57;;;;;;;15.43;8.80;;;;;;;;;;4993563;28;20069;-63
2022/10/17 06:41:24;;;;;;;14.82;8.57;;;;;;;;;;4993057;28;20117;-60
2022/10/17 06:43:49;;;;;;;14.45;8.77;;;;;;;;;;4994492;28;20049;-62
2022/10/17 06:46:17;;;;;;;11.75;8.90;;;;;;;;;;4990807;28;20034;-60
2022/10/17 06:48:42;;;;;;;13.80;8.95;;;;;;;;;;4985360;28;20471;-61
2022/10/17 06:51:11;;;;;;;14.63;9.05;;;;;;;;;;4993881;28;20042;-62
2022/10/17 06:53:38;;;;;;;14.43;8.73;;;;;;;;;;4995086;28;20026;-62
2022/10/17 06:56:06;;;;;;;16.77;9.52;;;;;;;;;;4985895;28;20034;-63
2022/10/17 06:58:40;;;;;;;16.02;8.88;;;;;;;;;;4995541;28;20077;-63
2022/10/17 07:01:10;;;;;;;12.52;8.27;;;;;;;;;;4986382;28;20498;-62
2022/10/17 07:03:36;;;;;;;12.63;8.57;;;;;;;;;;4985669;28;20064;-62
2022/10/17 07:06:02;;;;;;;11.38;8.02;;;;;;;;;;4981782;28;20035;-62
2022/10/17 07:08:28;;;;;;;16.10;8.77;;;;;;;;;;4975544;28;20039;-62
2022/10/17 07:10:54;;;;;;;12.40;7.78;;;;;;;;;;4981815;28;20037;-60
2022/10/17 07:13:19;;;;;;;13.73;7.88;;;;;;;;;;4995057;28;20042;-62
2022/10/17 07:15:45;;;;;;;12.38;7.55;;;;;;;;;;4983974;28;20026;-63
2022/10/17 07:18:11;;;;;;;12.68;7.50;;;;;;;;;;4993510;28;20045;-62
2022/10/17 07:20:36;;;;;;;13.00;6.97;;;;;;;;;;4989725;28;20034;-63
2022/10/17 07:23:01;;;;;;;10.63;7.10;;;;;;;;;;4994149;28;20455;-62
2022/10/17 07:25:27;;;;;;;12.63;7.10;;;;;;;;;;4987798;28;20036;-62
2022/10/17 07:27:53;;;;;;;10.98;6.88;;;;;;;;;;4992234;28;20026;-63
2022/10/17 07:30:19;;;;;;;10.50;6.63;;;;;;;;;;4993662;28;20109;-62
2022/10/17 07:32:45;;;;;;;11.23;6.80;;;;;;;;;;4988261;28;20069;-65
2022/10/17 07:35:11;;;;;;;11.50;7.03;;;;;;;;;;4965684;28;20038;-63
2022/10/17 07:37:37;;;;;;;10.68;7.00;;;;;;;;;;4993677;28;20109;-62
2022/10/17 07:40:05;;;;;;;12.15;7.05;;;;;;;;;;4992331;28;20117;-62
2022/10/17 07:42:32;;;;;;;12.88;7.28;;;;;;;;;;4994792;28;20034;-63
2022/10/17 07:44:57;;;;;;;10.02;6.75;;;;;;;;;;4992018;28;20042;-63
2022/10/17 07:47:23;;;;;;;9.00;6.47;;;;;;;;;;4967372;28;20035;-62
2022/10/17 07:49:49;;;;;;;11.73;6.50;;;;;;;;;;4986565;28;20042;-63
2022/10/17 07:52:15;;;;;;;11.27;6.90;;;;;;;;;;4994137;28;20031;-62
2022/10/17 07:54:41;;;;;;;9.82;7.20;;;;;;;;;;4987394;28;20031;-64
2022/10/17 07:57:06;;;;;;;10.82;6.22;;;;;;;;;;4985276;28;20034;-63
2022/10/17 07:59:33;;;;;;;9.20;5.72;;;;;;;;;;4992989;28;20038;-63
2022/10/17 08:01:59;;;;;;;8.57;5.88;;;;;;;;;;4988093;28;20041;-62
2022/10/17 08:04:25;;;;;;;10.10;5.18;;;;;;;;;;4994036;28;20027;-62
2022/10/17 08:06:51;;;;;;;12.63;5.50;;;;;;;;;;4981157;28;20396;-61
2022/10/17 08:09:17;;;;;;;8.27;5.32;;;;;;;;;;4988698;28;20460;-64
2022/10/17 08:11:45;;;;;;;10.05;5.10;;;;;;;;;;4987591;28;20030;-64
2022/10/17 08:14:15;;;;;;;7.70;4.97;;;;;;;;;;4974571;28;20039;-61
2022/10/17 08:16:41;;;;;;;9.07;4.80;;;;;;;;;;4989660;28;20164;-62
2022/10/17 08:19:07;;;;;;;7.38;4.53;;;;;;;;;;4992311;28;20117;-61
2022/10/17 08:21:33;;;;;;;7.78;4.72;;;;;;;;;;4985764;28;20050;-63
2022/10/17 08:24:01;;;;;;;6.65;4.90;;;;;;;;;;4990302;28;20782;-62
2022/10/17 08:26:27;;;;;;;7.20;4.15;;;;;;;;;;4992506;28;20039;-61
2022/10/17 08:28:52;;;;;;;7.45;4.10;;;;;;;;;;4991548;28;20034;-61
2022/10/17 08:31:19;;;;;;;6.68;4.53;;;;;;;;;;4983602;28;20451;-61
2022/10/17 08:33:46;;;;;;;6.72;4.03;;;;;;;;;;4972351;28;20030;-64
2022/10/17 08:36:14;;;;;;;7.95;4.35;;;;;;;;;;4984018;28;20108;-63
2022/10/17 08:38:42;;;;;;;8.35;4.50;;;;;;;;;;4991126;28;20042;-64
2022/10/17 08:41:39;;;;;;;5.45;3.67;;;;;;;;;;4991489;28;20094;-63
2022/10/17 08:44:37;;;;;;;7.25;3.90;;;;;;;;;;4968979;28;20097;-63
2022/10/17 08:47:08;;;;;;;8.40;3.70;;;;;;;;;;4980501;28;20042;-62
2022/10/17 08:49:51;;;;;;;9.65;3.72;;;;;;;;;;4992978;28;20052;-61
2022/10/17 08:52:38;;;;;;;8.60;3.85;;;;;;;;;;4985992;28;20487;-61
2022/10/17 08:55:14;;;;;;;9.63;3.60;;;;;;;;;;4986848;28;20061;-62
2022/10/17 08:57:39;;;;;;;8.63;3.70;;;;;;;;;;4992519;28;20038;-63
2022/10/17 09:00:15;;;;;;;7.95;3.47;;;;;;;;;;4979211;28;20069;-64
2022/10/17 09:03:16;;;;;;;7.72;3.70;;;;;;;;;;4992891;28;20530;-64
2022/10/17 09:05:52;;;;;;;4.85;3.50;;;;;;;;;;4989804;28;20041;-61
2022/10/17 09:08:33;;;;;;;9.82;3.88;;;;;;;;;;4992891;28;20082;-64
2022/10/17 09:11:10;;;;;;;9.30;3.70;;;;;;;;;;4991010;28;20046;-64
2022/10/17 09:14:13;;;;;;;7.13;3.50;;;;;;;;;;4991633;28;20105;-63
2022/10/17 09:17:00;;;;;;;6.45;3.50;;;;;;;;;;4969559;28;20117;-72
2022/10/17 09:19:36;;;;;;;6.18;3.45;;;;;;;;;;4990591;28;20491;-72
2022/10/17 09:22:23;;;;;;;6.38;3.38;;;;;;;;;;4991557;28;20050;-72
2022/10/17 09:24:59;;;;;;;6.93;3.33;;;;;;;;;;4990775;28;20415;-72
2022/10/17 09:27:37;;;;;;;6.20;3.20;;;;;;;;;;4992597;28;20026;-71
2022/10/17 09:30:18;;;;;;;8.68;3.13;;;;;;;;;;4984420;28;20030;-72
2022/10/17 09:32:46;;;;;;;7.22;3.25;;;;;;;;;;4991497;28;20161;-72
2022/10/17 09:35:13;;;;;;;8.10;3.65;;;;;;;;;;4986775;28;20034;-73
2022/10/17 09:37:38;;;;;;;7.25;3.38;;;;;;;;;;4992346;28;20038;-72
2022/10/17 09:40:07;;;;;;;6.38;3.63;;;;;;;;;;4982871;28;20034;-71
2022/10/17 09:42:34;;;;;;;7.95;3.80;;;;;;;;;;4971604;28;20535;-72
2022/10/17 09:44:59;;;;;;;6.05;3.33;;;;;;;;;;4981994;28;20089;-74
2022/10/17 09:47:38;;;;;;;6.75;3.25;;;;;;;;;;4985529;28;20447;-71
2022/10/17 09:50:13;;;;;;;6.30;3.38;;;;;;;;;;4991562;28;20034;-71
2022/10/17 09:52:41;;;;;;;6.25;3.40;;;;;;;;;;4986083;28;20106;-72
2022/10/17 09:55:18;;;;;;;10.13;3.60;;;;;;;;;;4991624;28;20034;-71
2022/10/17 09:58:01;;;;;;;6.70;3.72;;;;;;;;;;4990305;28;20088;-70
2022/10/17 10:00:33;;;;;;;9.40;3.50;;;;;;;;;;4977758;28;20038;-75
2022/10/17 10:03:22;;;;;;;7.28;3.30;;;;;;;;;;4992116;28;20109;-74
2022/10/17 10:06:17;;;;;;;12.07;3.60;;;;;;;;;;4993536;28;20030;-74
2022/10/17 10:08:48;;;;;;;8.60;3.63;;;;;;;;;;4989242;28;20027;-69
2022/10/17 10:11:14;;;;;;;8.02;3.13;;;;;;;;;;4984485;28;20113;-75
2022/10/17 10:13:41;;;;;;;5.85;3.30;;;;;;;;;;4987636;28;20026;-70
2022/10/17 10:16:17;;;;;;;6.25;3.20;;;;;;;;;;4995143;28;20082;-68
2022/10/17 10:18:44;;;;;;;8.80;3.60;;;;;;;;;;4994270;28;20455;-67
2022/10/17 10:21:15;;;;;;;8.30;3.50;;;;;;;;;;4989954;28;20050;-71
2022/10/17 10:24:01;;;;;;;9.95;3.50;;;;;;;;;;4980578;28;20023;-67
2022/10/17 10:26:31;;;;;;;6.45;3.40;;;;;;;;;;4981891;28;20042;-71
2022/10/17 10:29:00;;;;;;;5.13;3.28;;;;;;;;;;4994919;28;20537;-68
2022/10/17 10:31:37;;;;;;;7.20;3.20;;;;;;;;;;4982157;28;20088;-69
2022/10/17 10:34:13;;;;;;;6.13;3.95;;;;;;;;;;4993327;28;20117;-68
2022/10/17 10:36:50;;;;;;;8.15;3.80;;;;;;;;;;4992034;28;20068;-69
2022/10/17 10:39:41;;;;;;;9.48;3.70;;;;;;;;;;4996536;28;20037;-70
2022/10/17 10:42:18;;;;;;;6.35;3.60;;;;;;;;;;4990865;28;20066;-71
2022/10/17 10:44:45;;;;;;;7.82;3.53;;;;;;;;;;4993571;28;20472;-70
2022/10/17 10:47:15;;;;;;;6.22;3.30;;;;;;;;;;4982004;28;20141;-69
2022/10/17 10:49:41;;;;;;;7.38;3.50;;;;;;;;;;4972984;28;20045;-69
2022/10/17 10:52:13;;;;;;;7.65;3.50;;;;;;;;;;4994812;28;20185;-70
2022/10/17 10:54:47;;;;;;;6.80;3.63;;;;;;;;;;4994448;28;20057;-71
2022/10/17 10:57:19;;;;;;;8.32;3.20;;;;;;;;;;4991815;28;20035;-71
2022/10/17 10:59:57;;;;;;;8.52;3.45;;;;;;;;;;4989473;28;20428;-71
2022/10/17 11:02:41;;;;;;;8.50;3.30;;;;;;;;;;4989370;28;20045;-72
2022/10/17 11:05:14;;;;;;;9.68;3.40;;;;;;;;;;4986275;28;20042;-68
2022/10/17 11:07:51;;;;;;;7.55;3.55;;;;;;;;;;4990983;28;20490;-69
2022/10/17 11:10:25;;;;;;;6.20;3.33;;;;;;;;;;4992363;28;20475;-69
2022/10/17 11:13:09;;;;;;;9.60;3.70;;;;;;;;;;4984288;28;20030;-70
2022/10/17 11:15:43;;;;;;;8.00;3.30;;;;;;;;;;4992747;28;20022;-70
2022/10/17 11:18:34;;;;;;;6.57;3.55;;;;;;;;;;4993161;28;20046;-71
2022/10/17 11:21:04;;;;;;;;;;;;;;;;;;4977523;28;20039;-71
2022/10/17 11:23:39;;;;;;;6.23;3.53;;;;;;;;;;4981647;28;19918;-69
2022/10/17 11:26:24;;;;;;;7.75;3.67;;;;;;;;;;4990184;28;20342;-70
2022/10/17 11:28:55;;;;;;;7.45;3.50;;;;;;;;;;4986604;28;20038;-70
2022/10/17 11:31:24;;;;;;;8.25;3.60;;;;;;;;;;4988567;28;20034;-71
2022/10/17 11:33:56;;;;;;;6.80;3.60;;;;;;;;;;4991949;28;20192;-74
2022/10/17 11:36:25;;;;;;;11.10;3.78;;;;;;;;;;4993542;28;20113;-74
2022/10/17 11:39:02;;;;;;;5.90;3.40;;;;;;;;;;4979837;28;20041;-73
2022/10/17 11:41:33;;;;;;;7.93;3.50;;;;;;;;;;4991424;28;20049;-74
2022/10/17 11:44:10;;;;;;;9.60;3.60;;;;;;;;;;4993698;28;20478;-75
2022/10/17 11:46:38;;;;;;;9.15;3.50;;;;;;;;;;4990396;28;20037;-74
2022/10/17 11:49:27;;;;;;;9.25;3.80;;;;;;;;;;4993169;28;20041;-71
2022/10/17 11:52:04;;;;;;;8.88;3.55;;;;;;;;;;4992222;28;20046;-74
2022/10/17 11:54:49;;;;;;;7.30;3.75;;;;;;;;;;4990280;28;20033;-73
2022/10/17 11:57:23;;;;;;;8.77;3.83;;;;;;;;;;4979882;28;20023;-74
2022/10/17 12:00:12;;;;;;;11.38;4.00;;;;;;;;;;4992063;28;20042;-74
2022/10/17 12:03:01;;;;;;;8.75;3.70;;;;;;;;;;4991706;28;20037;-74
2022/10/17 12:05:40;;;;;;;7.28;3.60;;;;;;;;;;4985572;28;20038;-74
2022/10/17 12:08:30;;;;;;;8.68;3.88;;;;;;;;;;4987216;28;20522;-74
2022/10/17 12:11:09;;;;;;;10.63;3.70;;;;;;;;;;4991136;28;20427;-72
2022/10/17 12:13:40;;;;;;;6.53;3.72;;;;;;;;;;4974247;28;20034;-76
2022/10/17 12:16:21;;;;;;;12.77;3.50;;;;;;;;;;4989387;28;20061;-77
2022/10/17 12:18:47;;;;;;;11.13;4.15;;;;;;;;;;4973382;28;20043;-72
2022/10/17 12:21:12;;;;;;;8.15;3.75;;;;;;;;;;4990553;28;20042;-72
2022/10/17 12:23:39;;;;;;;9.18;3.60;;;;;;;;;;4993939;28;20053;-74
2022/10/17 12:26:08;;;;;;;13.20;3.67;;;;;;;;;;4990226;28;20088;-73
2022/10/17 12:28:36;;;;;;;7.97;3.78;;;;;;;;;;4989776;28;20031;-73
2022/10/17 12:31:04;;;;;;;5.97;3.60;;;;;;;;;;4988494;28;20557;-71
2022/10/17 12:33:37;;;;;;;10.43;3.58;;;;;;;;;;4976418;28;20038;-69
2022/10/17 12:36:15;;;;;;;8.80;3.78;;;;;;;;;;5006551;28;20054;-70
2022/10/17 12:38:40;;;;;;;7.00;3.88;;;;;;;;;;4979171;28;20108;-73
2022/10/17 12:41:06;;;;;;;7.50;3.50;;;;;;;;;;4992194;28;20070;-72
2022/10/17 12:43:42;;;;;;;8.55;3.92;;;;;;;;;;4986304;28;20399;-73
2022/10/17 12:46:08;;;;;;;8.80;3.78;;;;;;;;;;4990460;28;20046;-71
2022/10/17 12:48:33;;;;;;;6.57;3.70;;;;;;;;;;4983539;28;20383;-72
2022/10/17 12:51:12;;;;;;;7.95;4.13;;;;;;;;;;4991844;28;20537;-71
2022/10/17 12:53:53;;;;;;;7.70;4.00;;;;;;;;;;4991549;28;20034;-69
2022/10/17 12:56:28;;;;;;;6.63;3.92;;;;;;;;;;4992768;28;20545;-74
2022/10/17 12:58:55;;;;;;;10.15;4.45;;;;;;;;;;4980818;28;20068;-70
2022/10/17 13:01:32;;;;;;;10.93;4.20;;;;;;;;;;4987420;28;20140;-71
2022/10/17 13:04:04;;;;;;;10.50;4.20;;;;;;;;;;4981534;28;20034;-74
2022/10/17 13:06:36;;;;;;;12.70;4.40;;;;;;;;;;4992815;28;20038;-72
2022/10/17 13:09:14;;;;;;;8.25;4.38;;;;;;;;;;4978931;28;20053;-72
2022/10/17 13:11:41;;;;;;;7.22;4.10;;;;;;;;;;4990780;28;20539;-71
2022/10/17 13:14:12;;;;;;;7.03;4.32;;;;;;;;;;4983178;28;20109;-72
2022/10/17 13:16:50;;;;;;;9.88;4.70;;;;;;;;;;4990620;28;20093;-72
2022/10/17 13:19:18;;;;;;;7.90;4.72;;;;;;;;;;4992631;28;20112;-75
2022/10/17 13:21:57;;;;;;;12.25;4.75;;;;;;;;;;4986689;28;20046;-68
2022/10/17 13:24:36;;;;;;;11.05;4.53;;;;;;;;;;4953995;28;20082;-71
2022/10/17 13:27:01;;;;;;;8.05;4.78;;;;;;;;;;4959949;28;20026;-71
2022/10/17 13:29:29;;;;;;;8.95;4.80;;;;;;;;;;4988662;28;20551;-71
2022/10/17 13:32:00;;;;;;;8.48;4.57;;;;;;;;;;4991491;28;20039;-68
2022/10/17 13:34:26;;;;;;;8.65;5.00;;;;;;;;;;4978312;28;20030;-71
2022/10/17 13:36:55;;;;;;;8.60;4.88;;;;;;;;;;4975476;28;20039;-69
2022/10/17 13:39:34;;;;;;;10.88;5.07;;;;;;;;;;4981202;28;20046;-70
2022/10/17 13:42:01;;;;;;;7.63;4.82;;;;;;;;;;4979693;28;20082;-70
2022/10/17 13:44:30;;;;;;;12.73;5.20;;;;;;;;;;4986131;28;20068;-69
2022/10/17 13:46:57;;;;;;;10.75;5.50;;;;;;;;;;4987518;28;20030;-71
2022/10/17 13:49:32;;;;;;;11.48;5.47;;;;;;;;;;4992064;28;20035;-70
2022/10/17 13:52:00;;;;;;;9.65;5.18;;;;;;;;;;4984840;28;20042;-73
2022/10/17 13:54:36;;;;;;;9.07;5.05;;;;;;;;;;4981725;28;20026;-72
2022/10/17 13:57:03;;;;;;;11.00;5.30;;;;;;;;;;4980888;28;20038;-71
2022/10/17 13:59:39;;;;;;;9.77;5.47;;;;;;;;;;4985446;28;20089;-71
2022/10/17 14:02:12;;;;;;;10.48;5.10;;;;;;;;;;4991433;28;20204;-72
2022/10/17 14:04:38;;;;;;;9.23;5.15;;;;;;;;;;4990377;28;20038;-73
2022/10/17 14:07:04;;;;;;;7.43;4.93;;;;;;;;;;4991244;28;20656;-72
2022/10/17 14:09:31;;;;;;;9.02;4.90;;;;;;;;;;4985578;28;20034;-71
2022/10/17 14:12:05;;;;;;;7.50;4.47;;;;;;;;;;4987307;28;20042;-72
2022/10/17 14:14:30;;;;;;;9.75;4.22;;;;;;;;;;4990782;28;20502;-69
2022/10/17 14:16:56;;;;;;;8.90;4.70;;;;;;;;;;4981701;28;20026;-76
2022/10/17 14:19:28;;;;;;;8.65;4.40;;;;;;;;;;4992062;28;20042;-71
2022/10/17 14:22:13;;;;;;;9.00;4.72;;;;;;;;;;4979959;28;20051;-73
2022/10/17 14:24:39;;;;;;;7.47;4.40;;;;;;;;;;4990523;28;20039;-74
2022/10/17 14:27:38;;;;;;;8.57;4.40;;;;;;;;;;4988737;28;20650;-73
2022/10/17 14:30:27;;;;;;;11.07;4.70;;;;;;;;;;4971829;28;20251;-72
2022/10/17 14:33:02;;;;;;;12.50;5.03;;;;;;;;;;4978168;28;20479;-73
2022/10/17 14:35:28;;;;;;;11.25;4.40;;;;;;;;;;4990683;28;20049;-72
2022/10/17 14:38:03;;;;;;;10.98;4.57;;;;;;;;;;4986498;28;20399;-73
2022/10/17 14:40:31;;;;;;;10.30;4.47;;;;;;;;;;4991689;28;20030;-73
2022/10/17 14:42:58;;;;;;;11.27;4.90;;;;;;;;;;4989927;28;20064;-73
2022/10/17 14:45:28;;;;;;;9.25;4.70;;;;;;;;;;4981517;28;20053;-74
2022/10/17 14:47:59;;;;;;;11.13;4.57;;;;;;;;;;4986205;28;20121;-73
2022/10/17 14:50:25;;;;;;;;;;;;;;;;;;4995825;28;20030;-73
2022/10/17 14:53:19;;;;;;;10.98;4.60;;;;;;;;;;4993480;28;19968;-75
2022/10/17 14:56:00;;;;;;;14.73;4.68;;;;;;;;;;4989621;28;20494;-71
2022/10/17 14:58:28;;;;;;;12.25;4.57;;;;;;;;;;4963856;28;20061;-68